| Time | Avg. Air Temp | Dew Point | Avg. Rel Humidity | Avg. 2 Min Wind Speed | Max Gust Velocity | MGV Time | MGV Direction | Avg. Spot Wind Velocity |
|---|---|---|---|---|---|---|---|---|
| 2026-05-02 14:25:00 | 5° C | -4° C | 50% | 1 km/h | 14 km/h | 14:21:00 | SE | 3 km/h |
| 13:25:00 | 5° C | -5° C | 51% | 0 km/h | 3 km/h | 13:21:00 | NW | 0 km/h |
| 12:25:00 | 5° C | -5° C | 52% | 7 km/h | 13 km/h | 12:24:00 | NW | 5 km/h |
| 11:25:00 | 4° C | -4° C | 55% | 11 km/h | 18 km/h | 11:24:00 | NW | 12 km/h |
| 10:25:00 | 4° C | -4° C | 60% | 10 km/h | 14 km/h | 10:23:00 | NW | 11 km/h |
| 09:25:00 | 4° C | -3° C | 59% | 8 km/h | 13 km/h | 09:23:00 | 7 km/h | |
| 08:25:00 | 3° C | -3° C | 63% | 10 km/h | 14 km/h | 08:24:00 | N | 8 km/h |
| 07:25:00 | 3° C | -4° C | 59% | 19 km/h | 20 km/h | 07:25:00 | NW | 19 km/h |
| 06:25:00 | 3° C | -3° C | 65% | 12 km/h | 13 km/h | 06:24:00 | W | 12 km/h |
| 05:25:00 | 3° C | -4° C | 59% | 14 km/h | 15 km/h | 05:25:00 | NW | 13 km/h |
| 04:25:00 | 4° C | -4° C | 59% | 11 km/h | 12 km/h | 04:21:00 | NW | 11 km/h |
| 03:25:00 | 4° C | -3° C | 64% | 8 km/h | 9 km/h | 03:25:00 | SW | 8 km/h |
| 02:25:00 | 4° C | -3° C | 63% | 8 km/h | 9 km/h | 02:21:00 | SW | 8 km/h |
| 01:25:00 | 4° C | -2° C | 64% | 10 km/h | 10 km/h | 01:24:00 | SW | 10 km/h |
| 00:25:00 | 4° C | -2° C | 62% | 7 km/h | 7 km/h | 00:22:00 | S | 7 km/h |
| 23:25:00 | 4° C | -3° C | 58% | 8 km/h | 8 km/h | 23:24:00 | SW | 7 km/h |
| 22:25:00 | 4° C | -2° C | 64% | 13 km/h | 14 km/h | 22:25:00 | NE | 12 km/h |
| 21:25:00 | 4° C | -3° C | 62% | 7 km/h | 7 km/h | 21:25:00 | NE | 6 km/h |
| 20:25:00 | 4° C | -3° C | 61% | 3 km/h | 4 km/h | 20:21:00 | W | 3 km/h |
| 19:25:00 | 4° C | -3° C | 61% | 10 km/h | 11 km/h | 19:25:00 | W | 10 km/h |
| 18:25:00 | 4° C | -3° C | 61% | 11 km/h | 13 km/h | 18:25:00 | SW | 10 km/h |
| 17:25:00 | 4° C | -3° C | 60% | 13 km/h | 16 km/h | 17:22:00 | SW | 13 km/h |
| 16:25:00 | 4° C | -3° C | 59% | 8 km/h | 10 km/h | 16:25:00 | SW | 7 km/h |
| 15:25:00 | 4° C | -3° C | 60% | 9 km/h | 13 km/h | 15:22:00 | SW | 10 km/h |
Subpeak Weather
| Time | Avg. Air Temp | Dew Point | Avg. Rel Humidity | Avg. 2 Min Wind Speed | Max Gust Velocity | MGV Time | MGV Direction | Avg. Spot Wind Velocity |
|---|---|---|---|---|---|---|---|---|
| 2026-05-02 14:25:00 | 5° C | -4° C | 50% | 1 km/h | 14 km/h | 14:21:00 | SE | 3 km/h |
| 14:20:00 | 5° C | -4° C | 51% | 16 km/h | 20 km/h | 14:19:00 | W | 11 km/h |
| 14:15:00 | 5° C | -5° C | 50% | 6 km/h | 18 km/h | 14:11:00 | NE | 9 km/h |
| 14:10:00 | 5° C | -4° C | 50% | 7 km/h | 22 km/h | 14:07:00 | NW | 9 km/h |
| 14:05:00 | 5° C | -4° C | 52% | 3 km/h | 7 km/h | 14:05:00 | W | 2 km/h |
| 14:00:00 | 5° C | -4° C | 51% | 15 km/h | 20 km/h | 13:59:00 | NE | 9 km/h |
| 13:55:00 | 5° C | -4° C | 51% | 7 km/h | 19 km/h | 13:51:00 | W | 9 km/h |
| 13:50:00 | 5° C | -4° C | 50% | 14 km/h | 18 km/h | 13:50:00 | NW | 6 km/h |
| 13:45:00 | 5° C | -5° C | 49% | 1 km/h | 7 km/h | 13:43:00 | NW | 2 km/h |
| 13:40:00 | 5° C | -4° C | 51% | 10 km/h | 14 km/h | 13:39:00 | W | 4 km/h |
| 13:35:00 | 5° C | -5° C | 50% | 4 km/h | 9 km/h | 13:33:00 | W | 5 km/h |
| 13:30:00 | 5° C | -5° C | 48% | 9 km/h | 15 km/h | 13:28:00 | NW | 7 km/h |
| 13:25:00 | 5° C | -5° C | 51% | 0 km/h | 3 km/h | 13:21:00 | NW | 0 km/h |




